Thursday, September 18, 2014, 7:40 AM EDT

KTHV, York Airport

Location: Spring Grove, PA, United States Lat: 39.917
Local Time: 7:40 AM EDT (11:40 GMT) Lon: -76.883
Time Zone: US/Eastern Elev: 478 ft

Show me the last for .
Show Decoded

2014-09-18 06:53 METAR KTHV 181053Z AUTO 00000KT 7SM BKN050 11/10 A3000 RMK AO2 SLP162 T01110100
                 =
2014-09-18 05:53 METAR KTHV 180953Z AUTO 00000KT 8SM BKN060 OVC080 11/10 A2999 RMK AO2 SLP157
                 T01060100 =
2014-09-18 04:53 METAR KTHV 180853Z AUTO 00000KT 9SM BKN060 OVC080 11/10 A2998 RMK AO2 SLP155
                 T01110100 53003 =
2014-09-18 03:53 METAR KTHV 180753Z AUTO 00000KT 9SM OVC065 10/09 A2998 RMK AO2 SLP152 T01000089
                 =
2014-09-18 01:53 METAR KTHV 180553Z AUTO 00000KT 6SM BR CLR 08/07 A2997 RMK AO2 SLP151 T00780067
                 10128 20072 58006 =
2014-09-18 00:53 METAR KTHV 180453Z AUTO 00000KT 6SM BR CLR 08/07 A2998 RMK AO2 SLP152 T00780067
                 402390050 =
2014-09-17 23:53 METAR KTHV 180353Z AUTO 00000KT 10SM CLR 08/08 A2999 RMK AO2 SLP158 T00830078 =
2014-09-17 22:53 METAR KTHV 180253Z AUTO 00000KT 10SM CLR 09/07 A2999 RMK AO2 SLP158 T00890072
                 53005 =
2014-09-17 21:53 METAR KTHV 180153Z AUTO 00000KT 10SM CLR 09/08 A2998 RMK AO2 SLP154 T00940078 =
2014-09-17 20:53 METAR KTHV 180053Z AUTO 00000KT 10SM CLR 11/09 A2998 RMK AO2 SLP153 T01060089 =
2014-09-17 19:53 METAR KTHV 172353Z AUTO 00000KT 10SM CLR 13/10 A2998 RMK AO2 SLP154 T01280100
                 10239 20128 51002 =
2014-09-17 18:53 METAR KTHV 172253Z AUTO 00000KT 10SM CLR 17/11 A2998 RMK AO2 SLP154 T01670111 =
2014-09-17 17:53 METAR KTHV 172153Z AUTO 00000KT 10SM BKN065 22/09 A2997 RMK AO2 SLP152 T02170089
                 =
2014-09-17 16:53 METAR KTHV 172053Z AUTO 00000KT 10SM FEW065 22/08 A2997 RMK AO2 SLP150 T02170083
                 56011 =
2014-09-17 15:53 METAR KTHV 171953Z AUTO 23004KT 10SM OVC060 22/08 A2997 RMK AO2 SLP151 T02170078
                 =
2014-09-17 14:53 METAR KTHV 171853Z AUTO 00000KT 10SM CLR 21/07 A2998 RMK AO2 SLP153 T02110072 =
2014-09-17 13:53 METAR KTHV 171753Z AUTO 22004KT 10SM CLR 22/08 A3000 RMK AO2 SLP161 T02220083
                 10228 20089 58022 =
2014-09-17 12:53 METAR KTHV 171653Z AUTO VRB04KT 10SM OVC050 21/08 A3003 RMK AO2 SLP170 T02110078
                 =
2014-09-17 11:53 METAR KTHV 171553Z AUTO 14003KT 10SM FEW044 BKN060 20/09 A3005 RMK AO2 SLP179
                 T02000089 =
2014-09-17 10:53 METAR KTHV 171453Z AUTO 00000KT 10SM CLR 19/11 A3007 RMK AO2 SLP183 T01890106
                 58001 =
2014-09-17 09:53 METAR KTHV 171353Z AUTO VRB03KT 10SM CLR 18/11 A3008 RMK AO2 SLP188 T01780111 =
2014-09-17 08:53 METAR KTHV 171253Z AUTO 00000KT 10SM CLR 14/11 A3008 RMK AO2 SLP188 T01390111 =
2014-09-17 07:53 METAR KTHV 171153Z AUTO 00000KT 9SM CLR 09/08 A3007 RMK AO2 SLP185 T00890083
                 10089 20050 53004 =

Support USWX by starting your Amazon purchase here.